Time;durP1;ratioP1;P1;durP2;ratioP2;P2;SDS_P1;SDS_P2;PMS_P1;PMS_P2;Temp;Humidity;BMP_temperature;BMP_pressure;BME280_temperature;BME280_humidity;BME280_pressure;Samples;Min_cycle;Max_cycle;Signal;HPM_P1;HPM_P2
2023/10/17 00:00:45;;;;;;;8.30;6.57;;;3.70;99.90;;;;;;5068250;28;20868;-73
2023/10/17 00:03:11;;;;;;;11.17;7.20;;;3.70;99.90;;;;;;5069537;28;20834;-73
2023/10/17 00:05:37;;;;;;;9.77;6.60;;;3.70;99.90;;;;;;5069426;28;20414;-72
2023/10/17 00:08:05;;;;;;;13.73;6.70;;;3.60;99.90;;;;;;5051053;28;20456;-73
2023/10/17 00:10:41;;;;;;;10.53;6.13;;;3.40;99.90;;;;;;5069268;28;20194;-73
2023/10/17 00:14:11;;;;;;;7.57;6.10;;;3.40;99.90;;;;;;5069557;28;20555;-73
2023/10/17 00:16:03;;;;;;;8.80;5.70;;;3.30;99.90;;;;;;5059685;28;20467;-73
2023/10/17 00:18:28;;;;;;;6.60;5.83;;;3.20;99.90;;;;;;5069164;28;20222;-73
2023/10/17 00:20:55;;;;;;;16.43;6.07;;;3.20;99.90;;;;;;5069022;28;21069;-73
2023/10/17 00:23:21;;;;;;;9.07;5.53;;;3.20;99.90;;;;;;5069052;28;20225;-73
2023/10/17 00:25:49;;;;;;;9.93;6.00;;;3.20;99.90;;;;;;5067446;28;20433;-73
2023/10/17 00:28:15;;;;;;;7.43;5.40;;;3.20;99.90;;;;;;5068966;28;20269;-72
2023/10/17 00:30:43;;;;;;;5.50;4.63;;;3.20;99.90;;;;;;5050665;28;20437;-72
2023/10/17 00:33:12;;;;;;;10.17;5.83;;;3.20;99.90;;;;;;5067443;28;20453;-73
2023/10/17 00:35:46;;;;;;;6.47;5.03;;;3.20;99.90;;;;;;5068558;28;21031;-73
2023/10/17 00:38:15;;;;;;;6.47;5.00;;;3.20;99.90;;;;;;5067045;28;20456;-72
2023/10/17 00:43:12;;;;;;;5.80;4.90;;;3.10;99.90;;;;;;5068803;28;20421;-73
2023/10/17 00:45:38;;;;;;;8.20;4.40;;;3.10;99.90;;;;;;5067138;28;20420;-73
2023/10/17 00:48:08;;;;;;;9.80;4.70;;;3.10;99.90;;;;;;5068631;28;20190;-73
2023/10/17 00:50:35;;;;;;;5.40;4.10;;;3.10;99.90;;;;;;5067111;28;20609;-73
2023/10/17 00:53:01;;;;;;;5.67;3.20;;;3.20;99.90;;;;;;5068923;28;20424;-73
2023/10/17 00:55:27;;;;;;;5.17;4.40;;;3.20;99.90;;;;;;5068472;28;20428;-73
2023/10/17 00:57:56;;;;;;;5.53;3.97;;;3.20;99.90;;;;;;5066812;28;20696;-72
2023/10/17 01:00:35;;;;;;;6.10;4.13;;;3.30;99.90;;;;;;5066999;28;20187;-73
2023/10/17 01:03:08;;;;;;;6.47;4.00;;;3.20;99.90;;;;;;5068520;28;20437;-72
2023/10/17 01:05:42;;;;;;;4.80;4.33;;;3.30;99.90;;;;;;5068797;28;20414;-72
2023/10/17 01:08:07;;;;;;;5.97;4.63;;;3.30;99.90;;;;;;5067024;28;20424;-73
2023/10/17 01:10:33;;;;;;;5.27;3.90;;;3.30;99.90;;;;;;5068387;28;20802;-73
2023/10/17 01:13:05;;;;;;;4.07;3.67;;;3.20;99.90;;;;;;5066853;28;20187;-73
2023/10/17 01:15:37;;;;;;;5.87;3.97;;;3.20;99.90;;;;;;5066936;28;20240;-73
2023/10/17 01:18:06;;;;;;;4.70;3.97;;;3.20;99.90;;;;;;5068417;28;21088;-72
2023/10/17 01:20:32;;;;;;;3.90;3.33;;;3.30;99.90;;;;;;5068282;28;20413;-73
2023/10/17 01:23:00;;;;;;;4.90;3.40;;;3.40;99.90;;;;;;5068139;28;20506;-73
2023/10/17 01:25:29;;;;;;;5.80;4.80;;;3.60;99.90;;;;;;5068261;28;20420;-73
2023/10/17 01:27:59;;;;;;;5.97;4.37;;;3.70;99.90;;;;;;5068210;28;20989;-72
2023/10/17 01:30:32;;;;;;;7.23;3.80;;;3.70;99.90;;;;;;5067274;28;21001;-72
2023/10/17 01:32:59;;;;;;;4.60;3.50;;;3.80;99.90;;;;;;5068177;28;20417;-72
2023/10/17 01:35:25;;;;;;;5.13;3.90;;;3.80;99.90;;;;;;5066753;28;20803;-73
2023/10/17 01:37:52;;;;;;;6.33;3.67;;;3.80;99.90;;;;;;5068104;28;20926;-73
2023/10/17 01:40:26;;;;;;;6.60;3.93;;;3.90;99.90;;;;;;5068211;28;20424;-73
2023/10/17 01:42:53;;;;;;;5.40;4.27;;;3.90;99.90;;;;;;5068018;28;20465;-72
2023/10/17 01:45:25;;;;;;;4.60;4.20;;;4.00;99.90;;;;;;5067965;28;20435;-73
2023/10/17 01:47:51;;;;;;;10.47;4.20;;;4.10;99.90;;;;;;5066679;28;20425;-73
2023/10/17 01:50:18;;;;;;;6.17;4.33;;;4.00;99.90;;;;;;5066530;28;20779;-73
2023/10/17 01:52:45;;;;;;;14.30;7.23;;;3.90;99.90;;;;;;5069752;28;20421;-73
2023/10/17 01:55:14;;;;;;;13.73;6.90;;;3.80;99.90;;;;;;5071863;28;20421;-73
2023/10/17 01:57:44;;;;;;;9.30;5.60;;;3.70;99.90;;;;;;5071702;28;20701;-73
2023/10/17 02:02:58;;;;;;;12.00;7.43;;;3.50;99.90;;;;;;5071731;28;20440;-73
2023/10/17 02:05:24;;;;;;;7.03;5.07;;;3.40;99.90;;;;;;5069915;28;20424;-73
2023/10/17 02:07:50;;;;;;;8.53;6.43;;;3.40;99.90;;;;;;5071507;28;21005;-72
2023/10/17 02:10:21;;;;;;;8.30;5.83;;;3.40;99.90;;;;;;5071489;28;20421;-73
2023/10/17 02:12:48;;;;;;;7.80;5.83;;;3.30;99.90;;;;;;5071647;28;20421;-73
2023/10/17 02:15:19;;;;;;;6.03;5.20;;;3.30;99.90;;;;;;5071446;28;20470;-73
2023/10/17 02:17:48;;;;;;;11.20;7.10;;;3.30;99.90;;;;;;5071320;28;20441;-73
2023/10/17 02:20:29;;;;;;;7.87;5.47;;;3.30;99.90;;;;;;5071410;28;20473;-72
2023/10/17 02:23:08;;;;;;;9.10;6.80;;;3.30;99.90;;;;;;5070235;28;20417;-73
2023/10/17 02:25:37;;;;;;;8.97;6.10;;;3.20;99.90;;;;;;5070225;28;20435;-73
2023/10/17 02:28:03;;;;;;;10.03;6.60;;;3.20;99.90;;;;;;5071227;28;20435;-72
2023/10/17 02:30:29;;;;;;;9.57;6.20;;;3.20;99.90;;;;;;5069931;28;20437;-72
2023/10/17 02:32:54;;;;;;;7.50;6.50;;;3.20;99.90;;;;;;5071085;28;20421;-72
2023/10/17 02:35:28;;;;;;;9.33;6.60;;;3.20;99.90;;;;;;5069919;28;20252;-72
2023/10/17 02:37:57;;;;;;;11.63;7.47;;;3.20;99.90;;;;;;5069729;28;20211;-73
2023/10/17 02:40:23;;;;;;;7.43;6.30;;;3.20;99.90;;;;;;5069846;28;20919;-72
2023/10/17 02:42:52;;;;;;;10.90;6.27;;;3.20;99.90;;;;;;5071166;28;20923;-72
2023/10/17 02:45:26;;;;;;;7.27;5.63;;;3.20;99.90;;;;;;5070127;28;20482;-73
2023/10/17 02:47:57;;;;;;;7.80;5.60;;;3.20;99.90;;;;;;5070210;28;20428;-73
2023/10/17 02:52:59;;;;;;;7.33;5.80;;;3.20;99.90;;;;;;5070063;28;20421;-72
2023/10/17 02:55:25;;;;;;;9.00;6.23;;;3.10;99.90;;;;;;5069748;28;20440;-72
2023/10/17 02:57:57;;;;;;;7.87;5.70;;;3.00;99.90;;;;;;5071165;28;20841;-73
2023/10/17 03:00:25;;;;;;;7.07;5.60;;;3.10;99.90;;;;;;5071475;28;20448;-73
2023/10/17 03:02:52;;;;;;;9.10;6.30;;;3.10;99.90;;;;;;5070770;28;20863;-73
2023/10/17 03:05:18;;;;;;;10.20;5.50;;;3.20;99.90;;;;;;5071293;28;20985;-73
2023/10/17 03:07:50;;;;;;;8.83;6.47;;;3.30;99.90;;;;;;5069743;28;20528;-73
2023/10/17 03:10:21;;;;;;;8.20;5.23;;;3.20;99.90;;;;;;5070891;28;20931;-73
2023/10/17 03:12:55;;;;;;;9.63;6.20;;;3.20;99.90;;;;;;5069484;28;20428;-73
2023/10/17 03:15:22;;;;;;;7.00;5.63;;;3.20;99.90;;;;;;5069294;28;20421;-73
2023/10/17 03:17:53;;;;;;;11.70;6.90;;;3.20;99.90;;;;;;5069052;28;20567;-73
2023/10/17 03:20:20;;;;;;;14.53;6.80;;;3.10;99.90;;;;;;5069165;28;20422;-73
2023/10/17 03:22:46;;;;;;;7.00;6.20;;;3.10;99.90;;;;;;5069144;28;20417;-73
2023/10/17 03:25:20;;;;;;;8.87;5.67;;;2.80;99.90;;;;;;5070336;28;20424;-72
2023/10/17 03:27:49;;;;;;;11.60;6.87;;;2.90;99.90;;;;;;5068942;28;20289;-73
2023/10/17 03:30:19;;;;;;;9.02;5.88;;;2.60;99.90;;;;;;5068738;28;20422;-73
2023/10/17 03:33:05;;;;;;;14.40;5.60;;;2.50;99.90;;;;;;5070002;28;20191;-73
2023/10/17 03:35:35;;;;;;;7.93;5.85;;;2.60;99.90;;;;;;5070109;28;20963;-72
2023/10/17 03:38:02;;;;;;;8.50;6.33;;;2.50;99.90;;;;;;5069610;28;20210;-72
2023/10/17 03:40:41;;;;;;;8.30;6.20;;;2.60;99.90;;;;;;5069891;28;20422;-72
2023/10/17 03:43:12;;;;;;;15.30;7.47;;;2.60;99.90;;;;;;5069940;28;20187;-73
2023/10/17 03:45:58;;;;;;;9.65;6.95;;;2.80;99.90;;;;;;5069756;28;20486;-71
2023/10/17 03:48:28;;;;;;;10.38;7.15;;;2.90;99.90;;;;;;5069857;28;20181;-72
2023/10/17 03:53:29;;;;;;;11.47;8.27;;;2.90;99.90;;;;;;5068247;28;20422;-73
2023/10/17 03:56:00;;;;;;;8.82;5.88;;;2.80;99.90;;;;;;5068267;28;20447;-72
2023/10/17 04:00:53;;;;;;;10.65;6.32;;;2.90;99.90;;;;;;5069195;28;20514;-73
2023/10/17 04:03:21;;;;;;;12.20;6.70;;;2.90;99.90;;;;;;5067755;28;20181;-73
2023/10/17 04:06:02;;;;;;;14.80;7.83;;;2.90;99.90;;;;;;5068075;28;20488;-72
2023/10/17 04:08:31;;;;;;;12.52;7.40;;;3.00;99.90;;;;;;5067855;28;20500;-72
2023/10/17 04:13:42;;;;;;;10.03;6.93;;;3.00;99.90;;;;;;5066764;28;20902;-73
2023/10/17 04:16:10;;;;;;;11.60;6.97;;;3.10;99.90;;;;;;5065482;28;20476;-72
2023/10/17 04:18:39;;;;;;;13.70;7.93;;;3.10;99.90;;;;;;5066376;28;20460;-73
2023/10/17 04:21:17;;;;;;;9.83;7.30;;;3.20;99.90;;;;;;5067510;28;20561;-72
2023/10/17 04:23:44;;;;;;;11.43;7.53;;;3.20;99.90;;;;;;5066556;28;20424;-72
2023/10/17 04:26:17;;;;;;;9.53;7.10;;;3.30;99.90;;;;;;5066522;28;20605;-72
2023/10/17 04:28:49;;;;;;;10.38;7.40;;;3.30;99.90;;;;;;5068036;28;20492;-73
2023/10/17 04:31:24;;;;;;;9.30;7.60;;;3.30;99.90;;;;;;5067802;28;20290;-73
2023/10/17 04:33:58;;;;;;;11.77;8.13;;;3.40;99.90;;;;;;5067670;28;20417;-73
2023/10/17 04:36:26;;;;;;;10.55;8.15;;;3.40;99.90;;;;;;5067832;28;21045;-74
2023/10/17 04:44:21;;;;;;;18.23;9.27;;;3.60;99.90;;;;;;5066898;28;20187;-73
2023/10/17 04:46:50;;;;;;;17.07;10.17;;;3.70;99.90;;;;;;5067816;28;20824;-72
2023/10/17 04:49:17;;;;;;;15.23;10.20;;;3.80;99.90;;;;;;5067848;28;20426;-73
2023/10/17 04:51:43;;;;;;;14.57;8.87;;;3.90;99.90;;;;;;5066446;28;20919;-72
2023/10/17 04:54:39;;;;;;;16.30;9.73;;;3.90;99.90;;;;;;5067720;28;20474;-73
2023/10/17 04:57:05;;;;;;;14.03;9.00;;;3.80;99.90;;;;;;5065350;28;20456;-72
2023/10/17 05:05:39;;;;;;;11.07;7.50;;;3.60;99.90;;;;;;5067322;28;20507;-72
2023/10/17 06:18:49;;;;;;;9.90;7.93;;;3.50;99.90;;;;;;5069284;28;20476;-72
2023/10/17 06:21:19;;;;;;;12.97;9.40;;;3.60;99.90;;;;;;5069225;28;21234;-72
2023/10/17 06:32:07;;;;;;;14.30;9.03;;;3.80;99.90;;;;;;5070503;28;20421;-73
2023/10/17 06:34:33;;;;;;;12.43;9.00;;;3.90;99.90;;;;;;5070044;28;20475;-73
2023/10/17 06:37:01;;;;;;;15.80;10.87;;;3.90;99.90;;;;;;5068435;28;20480;-73
2023/10/17 06:39:36;;;;;;;15.52;10.38;;;3.90;99.90;;;;;;5069012;28;21165;-73
2023/10/17 06:42:14;;;;;;;13.97;9.70;;;3.80;99.90;;;;;;5068254;28;20659;-73
2023/10/17 06:44:54;;;;;;;24.33;10.33;;;3.80;99.90;;;;;;5069704;28;20416;-73
2023/10/17 06:47:30;;;;;;;17.50;10.23;;;3.80;99.90;;;;;;5068387;28;20440;-73
2023/10/17 06:52:40;;;;;;;13.70;9.07;;;4.00;99.90;;;;;;5069260;28;20927;-76
2023/10/17 06:55:20;;;;;;;13.67;10.00;;;4.00;99.90;;;;;;5069286;28;20428;-71
2023/10/17 06:57:50;;;;;;;11.70;9.43;;;4.10;99.90;;;;;;5067819;28;20522;-72
2023/10/17 07:00:24;;;;;;;11.50;8.50;;;4.30;99.90;;;;;;5068673;28;20417;-72
2023/10/17 07:02:49;;;;;;;9.80;7.90;;;4.30;99.90;;;;;;5068967;28;20508;-73
2023/10/17 07:05:21;;;;;;;9.63;8.40;;;4.40;99.90;;;;;;5069268;28;20460;-73
2023/10/17 07:07:53;;;;;;;12.97;7.90;;;4.50;99.90;;;;;;5069072;28;20231;-72
2023/10/17 07:13:39;;;;;;;14.27;7.93;;;4.50;99.90;;;;;;5070022;28;21136;-70
2023/10/17 07:16:11;;;;;;;11.30;7.70;;;4.60;99.90;;;;;;5069855;28;20977;-73
2023/10/17 07:18:44;;;;;;;9.17;7.50;;;4.70;99.90;;;;;;5069501;28;20996;-73
2023/10/17 07:23:44;;;;;;;12.80;8.13;;;4.80;99.90;;;;;;5070130;28;20413;-73
2023/10/17 07:28:55;;;;;;;12.03;8.00;;;4.90;99.90;;;;;;5068171;28;20840;-73
2023/10/17 07:31:24;;;;;;;13.67;9.40;;;4.90;99.90;;;;;;5069336;28;20474;-72
2023/10/17 07:37:22;;;;;;;12.47;8.07;;;4.90;99.90;;;;;;5015248;28;20459;-73
2023/10/17 07:39:59;;;;;;;10.43;8.30;;;4.90;99.90;;;;;;5025008;28;20471;-73
2023/10/17 07:42:30;;;;;;;11.53;7.10;;;5.00;99.90;;;;;;5056823;28;20433;-72
2023/10/17 07:44:57;;;;;;;11.13;7.37;;;5.20;99.90;;;;;;5068617;28;20965;-72
2023/10/17 07:47:33;;;;;;;11.10;8.17;;;5.30;99.90;;;;;;5068495;28;20434;-72
2023/10/17 07:50:00;;;;;;;10.30;7.60;;;5.30;99.90;;;;;;5066882;28;20528;-72
2023/10/17 07:52:26;;;;;;;12.23;8.17;;;5.40;99.90;;;;;;5050627;28;20436;-71
2023/10/17 07:54:58;;;;;;;11.17;8.17;;;5.60;99.90;;;;;;5066948;28;20426;-73
2023/10/17 07:57:36;;;;;;;11.23;7.10;;;5.90;99.90;;;;;;5050806;28;20445;-72
2023/10/17 08:00:24;;;;;;;14.37;8.60;;;6.10;99.90;;;;;;5068338;28;21106;-72
2023/10/17 08:02:48;;;;;;;11.43;8.47;;;6.40;99.90;;;;;;5067333;28;20943;-72
2023/10/17 08:05:17;;;;;;;14.23;9.07;;;6.60;99.90;;;;;;5067527;28;20475;-72
2023/10/17 08:07:48;;;;;;;17.63;9.20;;;6.70;99.90;;;;;;5068843;28;20202;-73
2023/10/17 08:10:26;;;;;;;14.50;8.70;;;6.80;99.90;;;;;;5068859;28;20470;-73
2023/10/17 08:12:57;;;;;;;14.50;9.47;;;6.80;99.90;;;;;;5068047;28;20410;-72
2023/10/17 08:15:30;;;;;;;14.57;9.90;;;7.00;99.90;;;;;;5066685;28;20413;-72
2023/10/17 08:17:58;;;;;;;13.90;9.87;;;7.20;99.90;;;;;;5068179;28;20475;-72
2023/10/17 08:23:09;;;;;;;15.00;9.90;;;7.70;99.90;;;;;;5068150;28;20423;-73
2023/10/17 08:25:52;;;;;;;16.30;10.50;;;8.00;99.90;;;;;;5067980;28;20752;-72
2023/10/17 08:28:37;;;;;;;13.47;9.80;;;8.40;99.90;;;;;;5067866;28;20539;-73
2023/10/17 08:42:05;;;;;;;19.60;10.27;;;8.60;99.90;;;;;;5067435;28;20422;-72
2023/10/17 08:44:34;;;;;;;23.17;11.43;;;8.80;99.90;;;;;;5067572;28;20420;-71
2023/10/17 08:47:01;;;;;;;13.73;9.60;;;9.00;99.90;;;;;;5067539;28;20441;-72
2023/10/17 08:49:28;;;;;;;15.33;10.27;;;9.50;99.90;;;;;;5069874;28;20417;-73
2023/10/17 08:51:56;;;;;;;15.67;10.60;;;10.20;99.90;;;;;;5067196;28;20421;-72
2023/10/17 08:54:24;;;;;;;17.33;10.27;;;10.60;99.90;;;;;;5067502;28;20517;-72
2023/10/17 08:56:50;;;;;;;15.93;10.40;;;11.10;99.90;;;;;;5067295;28;20534;-72
2023/10/17 08:59:30;;;;;;;20.40;9.67;;;11.20;99.90;;;;;;5067320;28;21059;-73
2023/10/17 09:02:14;;;;;;;15.60;9.80;;;10.90;99.90;;;;;;5066777;28;20434;-73
2023/10/17 09:04:42;;;;;;;16.13;9.60;;;10.60;99.90;;;;;;5066189;28;20419;-73
2023/10/17 09:07:09;;;;;;;12.67;9.20;;;10.30;99.90;;;;;;5067136;28;20436;-73
2023/10/17 09:09:34;;;;;;;12.70;9.57;;;10.10;99.90;;;;;;5065852;28;20429;-73
2023/10/17 09:12:01;;;;;;;14.00;9.00;;;10.10;99.90;;;;;;5065561;28;20478;-73
2023/10/17 09:14:29;;;;;;;13.33;9.03;;;10.20;99.90;;;;;;5067065;28;20280;-74
2023/10/17 09:17:10;;;;;;;16.13;10.00;;;10.30;99.90;;;;;;5067160;28;20485;-73
2023/10/17 09:19:46;;;;;;;18.80;10.20;;;10.30;99.90;;;;;;5067077;28;20464;-73
2023/10/17 09:22:15;;;;;;;17.50;10.60;;;10.40;99.90;;;;;;5067097;28;20412;-73
2023/10/17 09:24:45;;;;;;;12.93;9.10;;;10.30;99.90;;;;;;5067367;28;20908;-73
2023/10/17 09:27:14;;;;;;;16.07;11.10;;;10.30;99.90;;;;;;5065229;28;20478;-73
2023/10/17 09:29:55;;;;;;;18.83;10.60;;;10.30;99.90;;;;;;5066974;28;20922;-73
2023/10/17 09:32:32;;;;;;;15.67;9.13;;;10.30;99.90;;;;;;5065289;28;20428;-73
2023/10/17 09:34:59;;;;;;;15.63;11.00;;;10.40;99.90;;;;;;5066939;28;20415;-73
2023/10/17 09:37:27;;;;;;;16.40;10.10;;;10.50;99.90;;;;;;5066845;28;20440;-73
2023/10/17 09:39:54;;;;;;;13.57;10.47;;;11.20;99.90;;;;;;5065488;28;20467;-73
2023/10/17 09:42:20;;;;;;;16.17;9.97;;;11.60;99.90;;;;;;5066812;28;20991;-73
2023/10/17 09:44:46;;;;;;;15.00;9.57;;;11.80;99.90;;;;;;5066959;28;20405;-72
2023/10/17 09:47:16;;;;;;;12.63;9.47;;;11.80;99.90;;;;;;5066684;28;20579;-73
2023/10/17 09:49:44;;;;;;;13.10;9.20;;;11.90;99.90;;;;;;5066813;28;20165;-73
2023/10/17 09:52:11;;;;;;;10.73;8.70;;;11.80;99.90;;;;;;5066828;28;20442;-73
2023/10/17 09:54:41;;;;;;;12.40;9.03;;;12.20;99.90;;;;;;5066747;28;20428;-73
2023/10/17 09:57:14;;;;;;;9.70;8.07;;;12.50;99.90;;;;;;5066479;28;20440;-73
2023/10/17 09:59:46;;;;;;;11.27;8.53;;;12.20;99.90;;;;;;5065306;28;20461;-72
2023/10/17 10:02:13;;;;;;;14.10;8.43;;;12.30;99.90;;;;;;5066449;28;20447;-72
2023/10/17 10:04:39;;;;;;;12.53;8.83;;;12.10;99.90;;;;;;5065395;28;20474;-73
2023/10/17 10:07:22;;;;;;;11.23;8.33;;;12.40;99.90;;;;;;5065212;28;20466;-73
2023/10/17 10:09:48;;;;;;;17.67;9.50;;;12.20;99.90;;;;;;5066634;28;20189;-73
2023/10/17 10:12:17;;;;;;;9.13;7.40;;;11.80;99.90;;;;;;5065374;28;20431;-72
2023/10/17 10:14:43;;;;;;;14.70;8.27;;;12.40;99.90;;;;;;5068308;28;20193;-71
2023/10/17 10:17:15;;;;;;;15.67;8.60;;;12.80;99.90;;;;;;5068977;28;20447;-72
2023/10/17 10:19:41;;;;;;;13.07;9.37;;;12.80;98.90;;;;;;5070586;28;20467;-73
2023/10/17 10:22:11;;;;;;;12.97;9.20;;;12.60;99.40;;;;;;5068953;28;20452;-73
2023/10/17 10:24:39;;;;;;;12.27;8.13;;;12.90;99.20;;;;;;5070298;28;20195;-73
2023/10/17 10:27:23;;;;;;;13.23;8.13;;;12.80;99.80;;;;;;5070142;28;20962;-71
2023/10/17 10:29:53;;;;;;;13.37;8.43;;;12.80;99.90;;;;;;5068681;28;20452;-73
2023/10/17 10:32:29;;;;;;;13.90;9.17;;;12.90;99.90;;;;;;5052445;28;20441;-73
2023/10/17 10:34:54;;;;;;;13.70;8.80;;;12.60;99.30;;;;;;5070188;28;20999;-72
2023/10/17 10:37:21;;;;;;;13.43;10.00;;;12.60;99.90;;;;;;5068229;28;20486;-71
2023/10/17 10:42:52;;;;;;;15.20;9.50;;;13.10;98.90;;;;;;5069045;28;20425;-71
2023/10/17 10:45:36;;;;;;;12.80;8.20;;;13.20;99.00;;;;;;5053353;28;20421;-71
2023/10/17 10:48:21;;;;;;;13.13;9.47;;;13.20;99.20;;;;;;5069111;28;20504;-75
2023/10/17 10:50:49;;;;;;;15.60;9.50;;;13.90;99.10;;;;;;5068856;28;20483;-71
2023/10/17 10:53:18;;;;;;;15.90;10.17;;;14.00;96.70;;;;;;5068932;28;20444;-74
2023/10/17 10:55:51;;;;;;;14.30;9.33;;;14.30;96.90;;;;;;5070006;28;20423;-74
2023/10/17 10:58:18;;;;;;;12.03;9.13;;;14.20;96.00;;;;;;5069746;28;20460;-74
2023/10/17 11:00:44;;;;;;;14.70;9.97;;;14.50;95.40;;;;;;5070099;28;20869;-73
2023/10/17 11:03:10;;;;;;;17.90;11.47;;;14.10;96.00;;;;;;5069902;28;20467;-73
2023/10/17 11:06:08;;;;;;;14.70;10.60;;;13.90;96.70;;;;;;5068580;28;20417;-73
2023/10/17 11:08:44;;;;;;;15.10;10.23;;;13.70;97.20;;;;;;5069994;28;20176;-74
2023/10/17 11:11:11;;;;;;;16.10;10.63;;;13.70;98.90;;;;;;5069656;28;20774;-72
2023/10/17 11:13:43;;;;;;;20.87;11.37;;;13.60;99.20;;;;;;5069632;28;20587;-72
2023/10/17 11:16:09;;;;;;;16.97;9.97;;;13.40;99.10;;;;;;5069355;28;20437;-72
2023/10/17 11:18:38;;;;;;;15.40;10.63;;;13.40;99.90;;;;;;5068076;28;20471;-72
2023/10/17 11:21:05;;;;;;;14.10;10.60;;;13.30;99.90;;;;;;5069787;28;20233;-72
2023/10/17 11:23:35;;;;;;;14.80;10.30;;;13.40;99.90;;;;;;5069153;28;20440;-73
2023/10/17 11:26:12;;;;;;;15.80;11.30;;;13.50;99.90;;;;;;5069733;28;20427;-72
2023/10/17 11:28:42;;;;;;;14.97;11.37;;;13.40;99.90;;;;;;5067650;28;20456;-73
2023/10/17 11:31:13;;;;;;;13.80;10.53;;;13.30;99.90;;;;;;5069526;28;20425;-72
2023/10/17 11:33:45;;;;;;;14.93;11.23;;;13.30;99.90;;;;;;5069161;28;20426;-72
2023/10/17 11:36:19;;;;;;;16.47;10.27;;;13.40;99.90;;;;;;5069088;28;20530;-72
2023/10/17 11:38:56;;;;;;;16.73;11.57;;;13.60;99.90;;;;;;5067750;28;20606;-73
2023/10/17 11:41:29;;;;;;;17.00;11.93;;;13.60;99.90;;;;;;5069148;28;20394;-72
2023/10/17 11:43:55;;;;;;;15.30;11.60;;;13.30;99.90;;;;;;5069061;28;20963;-72
2023/10/17 11:46:31;;;;;;;18.20;10.93;;;13.10;99.90;;;;;;5068914;28;20525;-72
2023/10/17 11:49:26;;;;;;;17.07;11.70;;;12.90;99.90;;;;;;5068719;28;20413;-72
2023/10/17 11:52:09;;;;;;;14.23;10.47;;;13.00;99.90;;;;;;5068868;28;20408;-72
2023/10/17 11:55:11;;;;;;;15.97;11.20;;;13.00;99.90;;;;;;5068486;28;20512;-72
2023/10/17 11:57:37;;;;;;;16.47;11.00;;;13.10;99.90;;;;;;5068399;28;20545;-72
2023/10/17 12:02:46;;;;;;;17.40;11.73;;;13.10;99.90;;;;;;5068288;28;20433;-71
2023/10/17 12:05:27;;;;;;;15.37;11.67;;;13.00;99.90;;;;;;5068173;28;20464;-72
2023/10/17 12:07:53;;;;;;;18.67;10.80;;;13.10;99.90;;;;;;5067072;28;20409;-72
2023/10/17 12:10:19;;;;;;;16.23;11.83;;;13.10;99.90;;;;;;5068217;28;20416;-73
2023/10/17 12:12:46;;;;;;;17.60;12.17;;;13.10;99.90;;;;;;5050492;28;20892;-72
2023/10/17 12:15:13;;;;;;;22.70;11.00;;;13.10;99.90;;;;;;5068115;28;20425;-72
2023/10/17 12:17:44;;;;;;;18.13;11.57;;;13.20;99.90;;;;;;5067891;28;20532;-72
2023/10/17 12:20:13;;;;;;;15.63;11.70;;;13.40;99.90;;;;;;5066501;28;20453;-71
2023/10/17 12:22:42;;;;;;;17.33;11.20;;;13.20;99.90;;;;;;5068068;28;20479;-71
2023/10/17 12:25:16;;;;;;;20.43;11.70;;;13.20;99.90;;;;;;5068026;28;20436;-74
2023/10/17 12:27:41;;;;;;;18.77;12.50;;;13.10;99.90;;;;;;5067933;28;20968;-73
2023/10/17 12:30:13;;;;;;;16.53;11.50;;;13.10;99.90;;;;;;5067621;28;20425;-73
2023/10/17 12:32:39;;;;;;;18.37;11.53;;;13.10;99.90;;;;;;5067868;28;20270;-73
2023/10/17 12:35:12;;;;;;;15.70;10.77;;;13.10;99.90;;;;;;5067648;28;20983;-72
2023/10/17 12:37:43;;;;;;;16.20;10.93;;;13.10;99.90;;;;;;5067269;28;20695;-72
2023/10/17 12:40:18;;;;;;;15.90;11.77;;;13.20;99.90;;;;;;5034254;28;20473;-73
2023/10/17 12:42:47;;;;;;;13.40;11.17;;;13.20;99.90;;;;;;5067706;28;20420;-73
2023/10/17 12:45:17;;;;;;;18.97;13.27;;;13.10;99.90;;;;;;5067321;28;20799;-73
2023/10/17 12:47:43;;;;;;;12.57;10.83;;;13.10;99.90;;;;;;5067525;28;20518;-73
2023/10/17 12:50:11;;;;;;;10.77;9.37;;;13.10;99.90;;;;;;5067438;28;20923;-73
2023/10/17 12:52:37;;;;;;;21.33;11.33;;;13.20;99.90;;;;;;5066207;28;20428;-72
2023/10/17 12:55:11;;;;;;;15.30;10.97;;;13.20;99.90;;;;;;5067546;28;20419;-72
2023/10/17 12:57:38;;;;;;;15.83;10.87;;;13.30;99.90;;;;;;5067339;28;20557;-73
2023/10/17 13:00:14;;;;;;;17.23;12.20;;;13.20;99.90;;;;;;5067406;28;20541;-73
2023/10/17 13:02:40;;;;;;;14.50;11.70;;;13.20;99.90;;;;;;5067617;28;20463;-73
2023/10/17 13:05:10;;;;;;;18.60;11.03;;;13.10;99.90;;;;;;5067506;28;20424;-73
2023/10/17 13:07:40;;;;;;;18.50;11.30;;;13.10;99.90;;;;;;5067863;28;20424;-73
2023/10/17 13:10:11;;;;;;;16.97;11.00;;;13.20;99.90;;;;;;5067531;28;20451;-73
2023/10/17 13:12:39;;;;;;;15.53;10.80;;;13.20;99.90;;;;;;5067521;28;20421;-73
2023/10/17 13:15:08;;;;;;;15.20;10.77;;;13.30;99.90;;;;;;5067480;28;20493;-73
2023/10/17 13:17:34;;;;;;;13.60;10.67;;;13.20;99.90;;;;;;5066223;28;20893;-72
2023/10/17 13:20:07;;;;;;;23.00;12.00;;;13.20;99.90;;;;;;5067315;28;20479;-73
2023/10/17 13:22:36;;;;;;;15.20;10.43;;;13.20;99.90;;;;;;5066231;28;20420;-72
2023/10/17 13:25:04;;;;;;;18.40;11.30;;;13.20;99.90;;;;;;5065890;28;20517;-72
2023/10/17 13:27:29;;;;;;;14.67;10.03;;;13.10;99.90;;;;;;5067491;28;20502;-73
2023/10/17 13:29:55;;;;;;;13.40;10.60;;;13.20;99.90;;;;;;5067300;28;20417;-73
2023/10/17 13:32:23;;;;;;;16.53;10.50;;;13.10;99.90;;;;;;5067472;28;20182;-72
2023/10/17 13:34:51;;;;;;;14.77;10.50;;;13.20;99.90;;;;;;5067366;28;20614;-72
2023/10/17 13:37:17;;;;;;;13.87;9.50;;;13.30;99.90;;;;;;5067277;28;20429;-73
2023/10/17 13:39:43;;;;;;;13.93;9.73;;;13.40;99.90;;;;;;5067251;28;21043;-73
2023/10/17 13:42:09;;;;;;;15.00;11.00;;;13.30;99.90;;;;;;5065691;28;20417;-72
2023/10/17 13:44:35;;;;;;;14.97;10.10;;;13.20;99.90;;;;;;5067095;28;20182;-72
2023/10/17 13:47:01;;;;;;;11.50;9.80;;;13.20;99.90;;;;;;5067870;28;20429;-73
2023/10/17 13:49:27;;;;;;;15.13;10.47;;;13.10;99.90;;;;;;5071132;28;20664;-73
2023/10/17 13:51:54;;;;;;;12.77;10.43;;;13.00;99.90;;;;;;5071432;28;20207;-73
2023/10/17 13:54:20;;;;;;;12.47;10.20;;;13.00;99.90;;;;;;5071163;28;20424;-73
2023/10/17 13:56:45;;;;;;;13.97;9.50;;;13.00;99.90;;;;;;5071172;28;20441;-73
2023/10/17 13:59:13;;;;;;;15.33;11.07;;;13.00;99.90;;;;;;5069293;28;20249;-72
2023/10/17 14:01:42;;;;;;;12.80;9.73;;;12.90;99.90;;;;;;5070827;28;20692;-73
2023/10/17 14:04:12;;;;;;;17.30;9.70;;;12.80;99.90;;;;;;5070911;28;20416;-73
2023/10/17 14:06:39;;;;;;;14.70;10.57;;;12.80;99.90;;;;;;5071140;28;20433;-73
2023/10/17 14:09:15;;;;;;;15.80;10.20;;;12.80;99.90;;;;;;5071103;28;20417;-73
2023/10/17 14:11:46;;;;;;;21.83;10.73;;;12.70;99.90;;;;;;5069597;28;20460;-73
2023/10/17 14:14:13;;;;;;;14.27;9.70;;;12.70;99.90;;;;;;5070527;28;20405;-73
2023/10/17 14:16:42;;;;;;;14.97;10.50;;;12.70;99.90;;;;;;5070942;28;20534;-73
2023/10/17 14:19:15;;;;;;;11.63;9.30;;;12.70;99.90;;;;;;5070788;28;20545;-73
2023/10/17 14:22:01;;;;;;;18.67;10.97;;;12.70;99.90;;;;;;5070956;28;21268;-72
2023/10/17 14:24:49;;;;;;;12.00;9.83;;;12.70;99.90;;;;;;5071001;28;20488;-72
2023/10/17 14:27:15;;;;;;;15.10;9.60;;;12.70;99.90;;;;;;5070956;28;20441;-72
2023/10/17 14:29:42;;;;;;;13.37;9.47;;;12.60;99.90;;;;;;5069593;28;20413;-73
2023/10/17 14:32:08;;;;;;;12.47;9.87;;;12.60;99.90;;;;;;5070539;28;20421;-73
2023/10/17 14:34:34;;;;;;;17.87;10.30;;;12.60;99.90;;;;;;5069139;28;20430;-72
2023/10/17 14:37:00;;;;;;;14.10;9.73;;;12.60;99.90;;;;;;5070812;28;20440;-72
2023/10/17 14:39:29;;;;;;;13.90;9.30;;;12.60;99.90;;;;;;5068940;28;20464;-72
2023/10/17 14:41:55;;;;;;;12.13;9.60;;;12.50;99.90;;;;;;5070621;28;20757;-72
2023/10/17 14:44:20;;;;;;;10.07;8.00;;;12.50;99.90;;;;;;5070365;28;20998;-72
2023/10/17 14:46:46;;;;;;;13.53;9.00;;;12.50;99.90;;;;;;5070307;28;20432;-72
2023/10/17 14:49:13;;;;;;;31.53;18.90;;;12.50;99.90;;;;;;5069004;28;20182;-73
2023/10/17 14:51:39;;;;;;;12.90;9.53;;;12.40;99.90;;;;;;5070350;28;20416;-71
2023/10/17 14:54:13;;;;;;;14.60;9.50;;;12.40;99.90;;;;;;5070236;28;20421;-72
2023/10/17 14:56:42;;;;;;;11.67;8.87;;;12.40;99.90;;;;;;5070023;28;20198;-72
2023/10/17 14:59:08;;;;;;;11.50;8.97;;;12.30;99.90;;;;;;5069116;28;20485;-72
2023/10/17 15:01:35;;;;;;;14.17;9.50;;;12.20;99.90;;;;;;5069920;28;20434;-72
2023/10/17 15:04:00;;;;;;;13.33;10.03;;;12.20;99.90;;;;;;5068817;28;20425;-72
2023/10/17 15:06:27;;;;;;;16.40;10.77;;;12.20;99.90;;;;;;5069800;28;21022;-72
2023/10/17 15:08:52;;;;;;;13.63;9.83;;;12.20;99.90;;;;;;5070232;28;20184;-72
2023/10/17 15:11:20;;;;;;;13.70;10.13;;;12.20;99.90;;;;;;5068564;28;21088;-71
2023/10/17 15:13:46;;;;;;;16.90;9.83;;;12.20;99.90;;;;;;5070154;28;20365;-72
2023/10/17 15:16:16;;;;;;;11.90;8.87;;;12.10;99.90;;;;;;5069844;28;20436;-72